Hermanville, Mississippi
Current Conditions -  °F | °C
As of 4:55 PM on Saturday 25 Oct 2014 (Local Time) from KVKS Reporting Station
Clear Clear  
Wind Chill: 81°   Ceiling: Unl
Heat Index: 81°   Visibility: 10mi
Dew Point: 61°   Wind: 0mph
Humidity: 51%   Direction: NA
Pressure: 30.07"   Gusts: NA
Location:  31.96°N, 90.84°W
Report Text: KVKS 252155Z AUTO 00000KT 10SM CLR 27/16 A3007 RMK A01
Loading
Personal Weather Stations






























Interactive Weather Map
Tropical Storm Tracking
New forecast layout! Learn more

10-Day Weather Forecast

Advertisements
Track Severe Weather on mobile